Jolon, California
Current Conditions -  °F | °C
As of 4:53 PM on Friday 31 Oct 2014 (Local Time) from KPRB Reporting Station
Overcast Overcast  
Wind Chill: 64°   Ceiling: 3800
Heat Index: 64°   Visibility: 10mi
Dew Point: 51°   Wind: 10mph
Humidity: 63%   Direction: 220°SW
Pressure: 29.79"   Gusts: NA
Location:  35.97°N, 121.18°W
Report Text: KPRB 312353Z AUTO 22009KT 10SM OVC038 18/11 A2979 RMK AO2 SLP082 T01780106 10211 20178 56014 TSNO $
Loading
Personal Weather Stations






























Interactive Weather Map New forecast layout! Learn more

10-Day Weather Forecast

Advertisements
Track Severe Weather on mobile